Ryong Bong 1 — 3FUW2 — position and weather

sailwx.info

Track history (hours):
 
Tides and Currents Weather Stations Pressure Air Temp Water Temp Dewpoint Dewpoint Depression Visibility Wind Speed Wind Dir Waves Ship Positions

Ryong Bong 1

Last reported at 2018-Jun-04 09:50 UTC. Time now 2018-Jun-18 07:31 UTC.
Position N 38°07' E 120°19'.
Warning: this ship's position is 13 days out of date.

Length 97 m; draft 3.7 m.

Type: Cargo ship. MMSI: 354185000.

Date/timePositionNaut miles runAvg speedWind from/ knotsBaromVisibWave heightAir tempDewpointWater temp
2018-Jun-04 09:50N 38°07' E 120°19'410.9
2018-Jun-04 09:30N 38°06' E 120°24'510.8
2018-Jun-04 09:00N 38°04' E 120°30'611.4
2018-Jun-04 08:30N 38°02' E 120°37'611.3
2018-Jun-04 08:00N 38°01' E 120°44'611.5
2018-Jun-04 07:30N 38°00' E 120°51'611.1
2018-Jun-04 07:00N 37°59' E 120°58'1610.4
2018-Jun-04 05:29N 37°53' E 121°17'510.2
2018-Jun-04 04:59N 37°49' E 121°20'510.0
2018-Jun-04 04:30N 37°45' E 121°24'5 9.9
2018-Jun-04 04:00N 37°41' E 121°27'5 9.2
2018-Jun-04 03:30N 37°36' E 121°27'3 4.8
2018-Jun-04 02:49N 37°35' E 121°23'0 0.1
2018-Jun-04 02:28N 37°35' E 121°23'0 0.0
2018-Jun-04 01:55N 37°35' E 121°23'0 0.0
2018-Jun-04 01:25N 37°35' E 121°23'0 0.0
2018-Jun-04 00:55N 37°35' E 121°23'0 0.0
2018-Jun-04 00:25N 37°35' E 121°23'0 0.0
2018-Jun-03 23:58N 37°35' E 121°23'0 0.0
2018-Jun-03 23:13N 37°35' E 121°23'0 0.0
2018-Jun-03 22:55N 37°35' E 121°23'0 0.0
2018-Jun-03 22:16N 37°35' E 121°23'0 0.1
2018-Jun-03 21:55N 37°35' E 121°23'0 0.1
2018-Jun-03 21:28N 37°35' E 121°23'0 0.0
2018-Jun-03 20:55N 37°35' E 121°23'0 0.0
2018-Jun-03 20:28N 37°35' E 121°23'0 0.0
2018-Jun-03 19:49N 37°35' E 121°23'0 0.0
2018-Jun-03 19:25N 37°35' E 121°23'0 0.0
2018-Jun-03 18:55N 37°35' E 121°23'0 0.0
2018-Jun-03 18:22N 37°35' E 121°23'0 0.0
2018-Jun-03 17:58N 37°35' E 121°23'0 0.0
2018-Jun-03 17:28N 37°35' E 121°23'0 0.2
2018-Jun-03 16:58N 37°35' E 121°23'0 0.1
2018-Jun-03 16:28N 37°35' E 121°23'0 0.2
2018-Jun-03 15:58N 37°35' E 121°23'0 0.2
2018-Jun-03 15:22N 37°35' E 121°23'0 0.1
2018-Jun-03 14:58N 37°35' E 121°23'0 0.0
2018-Jun-03 14:28N 37°35' E 121°23'0 0.0
2018-Jun-03 13:52N 37°35' E 121°23'0 0.1
2018-Jun-03 13:28N 37°35' E 121°23'0 0.1
2018-Jun-03 12:52N 37°35' E 121°23'0 0.1
2018-Jun-03 12:28N 37°35' E 121°23'0 0.0
2018-Jun-03 11:58N 37°35' E 121°23'0 0.0
2018-Jun-03 11:13N 37°35' E 121°23'0 0.0
2018-Jun-03 10:52N 37°35' E 121°23'0 0.0
2018-Jun-03 10:28N 37°35' E 121°23'0 0.0
2018-Jun-03 09:58N 37°35' E 121°23'0 0.0
2018-Jun-03 09:19N 37°35' E 121°23'0 0.1
2018-Jun-03 08:58N 37°35' E 121°23'0 0.0
2018-Jun-03 08:14N 37°35' E 121°23'0 0.1
2018-Jun-03 07:59N 37°35' E 121°23'0 0.0
2018-Jun-03 07:26N 37°35' E 121°23'0 0.0
2018-Jun-03 06:59N 37°35' E 121°23'0 0.0
2018-Jun-03 06:26N 37°35' E 121°23'0 0.0
2018-Jun-03 05:58N 37°35' E 121°23'0 0.0
2018-Jun-03 05:25N 37°35' E 121°23'0 0.0
2018-Jun-03 04:55N 37°35' E 121°23'0 0.0
2018-Jun-03 04:28N 37°35' E 121°23'0 0.0
2018-Jun-03 03:58N 37°35' E 121°23'0 0.1
2018-Jun-03 03:30N 37°35' E 121°23'2 4.1
2018-Jun-03 02:58N 37°35' E 121°26'4 8.5
2018-Jun-03 02:29N 37°38' E 121°29'2 4.6
2018-Jun-03 02:00N 37°40' E 121°31'0 0.1
2018-Jun-03 01:30N 37°40' E 121°31'3 6.3
2018-Jun-03 01:00N 37°41' E 121°35'4 8.4
2018-Jun-03 00:29N 37°42' E 121°40'4 8.5
2018-Jun-02 23:59N 37°44' E 121°45'4 8.5
2018-Jun-02 23:28N 37°45' E 121°50'5 8.5
2018-Jun-02 22:55N 37°45' E 121°56'3 8.3
2018-Jun-02 22:30N 37°45' E 122°00'4 8.3
2018-Jun-02 22:00N 37°46' E 122°06'4 8.3
2018-Jun-02 21:29N 37°46' E 122°11'  
Track history (hours):
 
Tides and Currents Weather Stations Pressure Air Temp Water Temp Dewpoint Dewpoint Depression Visibility Wind Speed Wind Dir Waves Ship Positions

Ryong Bong 1

Last reported at 2018-Jun-04 09:50 UTC. Time now 2018-Jun-18 07:31 UTC.
Position N 38°07' E 120°19'.
Warning: this ship's position is 13 days out of date.

Length 97 m; draft 3.7 m.

Type: Cargo ship. MMSI: 354185000.

Date/timePositionNaut miles runAvg speedWind from/ knotsBaromVisibWave heightAir tempDewpointWater temp
2018-Jun-04 09:50N 38°07' E 120°19'410.9
2018-Jun-04 09:30N 38°06' E 120°24'510.8
2018-Jun-04 09:00N 38°04' E 120°30'611.4
2018-Jun-04 08:30N 38°02' E 120°37'611.3
2018-Jun-04 08:00N 38°01' E 120°44'611.5
2018-Jun-04 07:30N 38°00' E 120°51'611.1
2018-Jun-04 07:00N 37°59' E 120°58'1610.4
2018-Jun-04 05:29N 37°53' E 121°17'510.2
2018-Jun-04 04:59N 37°49' E 121°20'510.0
2018-Jun-04 04:30N 37°45' E 121°24'5 9.9
2018-Jun-04 04:00N 37°41' E 121°27'5 9.2
2018-Jun-04 03:30N 37°36' E 121°27'3 4.8
2018-Jun-04 02:49N 37°35' E 121°23'0 0.1
2018-Jun-04 02:28N 37°35' E 121°23'0 0.0
2018-Jun-04 01:55N 37°35' E 121°23'0 0.0
2018-Jun-04 01:25N 37°35' E 121°23'0 0.0
2018-Jun-04 00:55N 37°35' E 121°23'0 0.0
2018-Jun-04 00:25N 37°35' E 121°23'0 0.0
2018-Jun-03 23:58N 37°35' E 121°23'0 0.0
2018-Jun-03 23:13N 37°35' E 121°23'0 0.0
2018-Jun-03 22:55N 37°35' E 121°23'0 0.0
2018-Jun-03 22:16N 37°35' E 121°23'0 0.1
2018-Jun-03 21:55N 37°35' E 121°23'0 0.1
2018-Jun-03 21:28N 37°35' E 121°23'0 0.0
2018-Jun-03 20:55N 37°35' E 121°23'0 0.0
2018-Jun-03 20:28N 37°35' E 121°23'0 0.0
2018-Jun-03 19:49N 37°35' E 121°23'0 0.0
2018-Jun-03 19:25N 37°35' E 121°23'0 0.0
2018-Jun-03 18:55N 37°35' E 121°23'0 0.0
2018-Jun-03 18:22N 37°35' E 121°23'0 0.0
2018-Jun-03 17:58N 37°35' E 121°23'0 0.0
2018-Jun-03 17:28N 37°35' E 121°23'0 0.2
2018-Jun-03 16:58N 37°35' E 121°23'0 0.1
2018-Jun-03 16:28N 37°35' E 121°23'0 0.2
2018-Jun-03 15:58N 37°35' E 121°23'0 0.2
2018-Jun-03 15:22N 37°35' E 121°23'0 0.1
2018-Jun-03 14:58N 37°35' E 121°23'0 0.0
2018-Jun-03 14:28N 37°35' E 121°23'0 0.0
2018-Jun-03 13:52N 37°35' E 121°23'0 0.1
2018-Jun-03 13:28N 37°35' E 121°23'0 0.1
2018-Jun-03 12:52N 37°35' E 121°23'0 0.1
2018-Jun-03 12:28N 37°35' E 121°23'0 0.0
2018-Jun-03 11:58N 37°35' E 121°23'0 0.0
2018-Jun-03 11:13N 37°35' E 121°23'0 0.0
2018-Jun-03 10:52N 37°35' E 121°23'0 0.0
2018-Jun-03 10:28N 37°35' E 121°23'0 0.0
2018-Jun-03 09:58N 37°35' E 121°23'0 0.0
2018-Jun-03 09:19N 37°35' E 121°23'0 0.1
2018-Jun-03 08:58N 37°35' E 121°23'0 0.0
2018-Jun-03 08:14N 37°35' E 121°23'0 0.1
2018-Jun-03 07:59N 37°35' E 121°23'0 0.0
2018-Jun-03 07:26N 37°35' E 121°23'0 0.0
2018-Jun-03 06:59N 37°35' E 121°23'0 0.0
2018-Jun-03 06:26N 37°35' E 121°23'0 0.0
2018-Jun-03 05:58N 37°35' E 121°23'0 0.0
2018-Jun-03 05:25N 37°35' E 121°23'0 0.0
2018-Jun-03 04:55N 37°35' E 121°23'0 0.0
2018-Jun-03 04:28N 37°35' E 121°23'0 0.0
2018-Jun-03 03:58N 37°35' E 121°23'0 0.1
2018-Jun-03 03:30N 37°35' E 121°23'2 4.1
2018-Jun-03 02:58N 37°35' E 121°26'4 8.5
2018-Jun-03 02:29N 37°38' E 121°29'2 4.6
2018-Jun-03 02:00N 37°40' E 121°31'0 0.1
2018-Jun-03 01:30N 37°40' E 121°31'3 6.3
2018-Jun-03 01:00N 37°41' E 121°35'4 8.4
2018-Jun-03 00:29N 37°42' E 121°40'4 8.5
2018-Jun-02 23:59N 37°44' E 121°45'4 8.5
2018-Jun-02 23:28N 37°45' E 121°50'5 8.5
2018-Jun-02 22:55N 37°45' E 121°56'3 8.3
2018-Jun-02 22:30N 37°45' E 122°00'4 8.3
2018-Jun-02 22:00N 37°46' E 122°06'4 8.3
2018-Jun-02 21:29N 37°46' E 122°11'  

Dump ship's entire track history